Terminal Aerodrome Forecast
Issued by NWS

Current Version | Previous Version | Text Only | Print | Product List | Glossary Off
Versions: 1 2 3 4 5 6 7 8 9 10 11 12 13 14 15 16 17 18 19 20 21 22 23 24 25 26

000
FTUS41 KPBZ 261900 AAB
TAFHLG
TAF AMD
KHLG 261927Z 2619/2718 34009KT P6SM -SHRA SCT008 OVC015
      TEMPO 2620/2621 BKN008
     FM270200 33007KT P6SM BKN015
     FM271500 32006KT P6SM -SHRASN BKN025=

USA.gov is the U.S. government's official web portal to all federal, state and local government web resources and services.